Airfield :
LOGIN :

Register | Disclaimer

   EN    FR    IT 

 










Legend :    VFR   Marginal VFR   IFR   Intensive IFR   Very Intensive IFR
Visi :
Ceiling :
>= 8 km
>= 3000ft
5 to 8 km
1000 to 3000 ft
1500m to 5 km
500 to 1000 ft
800 to 1500m
200 to 500 ft
< 800m
< 200 ft
Symbols :   Thunderstorms  Fog  Heavy snow  Heavy precipitations  Wind > 20 kt
SIGMETs :     Misc.  Thunderstorms  Icing  Turbulence  Mountain Waves  Volcanic Ashes







- Airport Elevation : 126 ft
- IATA code : TIA


LATI - Rinas Mother Teresa Arpt - Tirana

CURRENT METAR :
  • 202120Z 15009KT 9999 VCTS -RA FEW040CB BKN100 21/16 Q1013 NOSIG

EXPIRED METARs :
  • 202050Z 18007KT 140V210 9999 -RA FEW040CB BKN084 20/15 Q1013 NOSIG
  • 202020Z 17013KT 9999 TS SCT040CB BKN084 20/13 Q1013 NOSIG
  • 201950Z 16016KT 9999 VCTS FEW030CB BKN080 24/16 Q1012 NOSIG
  • 201920Z 16008KT 9999 FEW035CB BKN080 23/18 Q1011 NOSIG
  • 201850Z 22004KT 190V250 9999 VCTS FEW035CB BKN070 23/18 Q1011 NOSIG

TAF TAF LATI
Valid from the 20 at 18:00 until the 21 at 18:00 UTC


201700Z 2018/2118 VRB03KT 9999 SCT050
TEMPO 2110/2118 30008KT -RA FEW030CB BKN080
PROB40
TEMPO 2115/2118 -TSRA SCT025CB BKN050
No reported NOTAMs for that airfield.



MET'MAP, your aeronautical weather chart ! - Copyright ORBIFLY December 2007 - Disclaimer

ORBIFLY MET'MAP TEAM :

Programming & Development : Alexandra Zaïnal
Concept & Development : Baudouin d'Aumeries
Co-Development & Prog : Marc-Olivier Méhu
Technical & hardware support : Manuel Goepfert

Contact : metmap@orbifly.com




SOURCES & CREDITS :

   NOAA